sensor_id;sensor_type;location;lat;lon;timestamp;temperature;humidity
6375;DHT22;35400;45.472;-122.822;2024-03-07T00:00:10;7.20;99.90
6375;DHT22;35400;45.472;-122.822;2024-03-07T00:02:45;7.20;99.90
6375;DHT22;35400;45.472;-122.822;2024-03-07T00:05:15;7.20;99.90
6375;DHT22;35400;45.472;-122.822;2024-03-07T00:07:42;7.30;99.90
6375;DHT22;35400;45.472;-122.822;2024-03-07T00:10:10;7.30;99.90
6375;DHT22;35400;45.472;-122.822;2024-03-07T00:12:38;7.30;99.90
6375;DHT22;35400;45.472;-122.822;2024-03-07T00:15:08;7.30;99.90
6375;DHT22;35400;45.472;-122.822;2024-03-07T00:17:35;7.30;99.90
6375;DHT22;35400;45.472;-122.822;2024-03-07T00:20:03;7.40;99.90
6375;DHT22;35400;45.472;-122.822;2024-03-07T00:22:31;7.40;99.90
6375;DHT22;35400;45.472;-122.822;2024-03-07T00:24:58;7.40;99.90
6375;DHT22;35400;45.472;-122.822;2024-03-07T00:27:25;7.40;99.90
6375;DHT22;35400;45.472;-122.822;2024-03-07T00:29:55;7.40;99.90
6375;DHT22;35400;45.472;-122.822;2024-03-07T00:32:24;7.40;99.90
6375;DHT22;35400;45.472;-122.822;2024-03-07T00:34:51;7.50;99.90
6375;DHT22;35400;45.472;-122.822;2024-03-07T00:37:17;7.50;99.90
6375;DHT22;35400;45.472;-122.822;2024-03-07T00:39:44;7.50;99.90
6375;DHT22;35400;45.472;-122.822;2024-03-07T00:42:11;7.50;99.90
6375;DHT22;35400;45.472;-122.822;2024-03-07T00:44:38;7.40;99.90
6375;DHT22;35400;45.472;-122.822;2024-03-07T00:47:05;7.50;99.90
6375;DHT22;35400;45.472;-122.822;2024-03-07T00:49:32;7.40;99.90
6375;DHT22;35400;45.472;-122.822;2024-03-07T00:51:59;7.40;99.90
6375;DHT22;35400;45.472;-122.822;2024-03-07T00:54:27;7.40;99.90
6375;DHT22;35400;45.472;-122.822;2024-03-07T00:56:54;7.40;99.90
6375;DHT22;35400;45.472;-122.822;2024-03-07T00:59:21;7.30;99.90
6375;DHT22;35400;45.472;-122.822;2024-03-07T01:01:48;7.20;99.90
6375;DHT22;35400;45.472;-122.822;2024-03-07T01:04:15;7.20;99.90
6375;DHT22;35400;45.472;-122.822;2024-03-07T01:06:43;7.10;99.90
6375;DHT22;35400;45.472;-122.822;2024-03-07T01:09:10;7.10;99.90
6375;DHT22;35400;45.472;-122.822;2024-03-07T01:11:44;7.10;99.90
6375;DHT22;35400;45.472;-122.822;2024-03-07T01:14:11;7.00;99.90
6375;DHT22;35400;45.472;-122.822;2024-03-07T01:16:38;7.00;99.90
6375;DHT22;35400;45.472;-122.822;2024-03-07T01:19:06;7.00;99.90
6375;DHT22;35400;45.472;-122.822;2024-03-07T01:21:34;6.90;99.90
6375;DHT22;35400;45.472;-122.822;2024-03-07T01:24:01;6.90;99.90
6375;DHT22;35400;45.472;-122.822;2024-03-07T01:26:28;6.80;99.90
6375;DHT22;35400;45.472;-122.822;2024-03-07T01:28:57;6.80;99.90
6375;DHT22;35400;45.472;-122.822;2024-03-07T01:31:24;6.80;99.90
6375;DHT22;35400;45.472;-122.822;2024-03-07T01:33:52;6.80;99.90
6375;DHT22;35400;45.472;-122.822;2024-03-07T01:36:19;6.80;99.90
6375;DHT22;35400;45.472;-122.822;2024-03-07T01:38:49;6.70;99.90
6375;DHT22;35400;45.472;-122.822;2024-03-07T01:41:16;6.70;99.90
6375;DHT22;35400;45.472;-122.822;2024-03-07T01:43:43;6.70;99.90
6375;DHT22;35400;45.472;-122.822;2024-03-07T01:46:10;6.70;99.90
6375;DHT22;35400;45.472;-122.822;2024-03-07T01:48:38;6.70;99.90
6375;DHT22;35400;45.472;-122.822;2024-03-07T01:51:07;6.70;99.90
6375;DHT22;35400;45.472;-122.822;2024-03-07T01:53:35;6.70;99.90
6375;DHT22;35400;45.472;-122.822;2024-03-07T01:56:02;6.70;99.90
6375;DHT22;35400;45.472;-122.822;2024-03-07T01:58:30;6.60;99.90
6375;DHT22;35400;45.472;-122.822;2024-03-07T02:00:59;6.60;99.90
6375;DHT22;35400;45.472;-122.822;2024-03-07T02:03:26;6.60;99.90
6375;DHT22;35400;45.472;-122.822;2024-03-07T02:05:53;6.60;99.90
6375;DHT22;35400;45.472;-122.822;2024-03-07T02:08:20;6.60;99.90
6375;DHT22;35400;45.472;-122.822;2024-03-07T02:10:47;6.50;99.90
6375;DHT22;35400;45.472;-122.822;2024-03-07T02:13:15;6.50;99.90
6375;DHT22;35400;45.472;-122.822;2024-03-07T02:15:42;6.50;99.90
6375;DHT22;35400;45.472;-122.822;2024-03-07T02:18:09;6.50;99.90
6375;DHT22;35400;45.472;-122.822;2024-03-07T02:20:36;6.50;99.90
6375;DHT22;35400;45.472;-122.822;2024-03-07T02:23:03;6.40;99.90
6375;DHT22;35400;45.472;-122.822;2024-03-07T02:25:30;6.40;99.90
6375;DHT22;35400;45.472;-122.822;2024-03-07T02:27:58;6.40;99.90
6375;DHT22;35400;45.472;-122.822;2024-03-07T02:30:25;6.40;99.90
6375;DHT22;35400;45.472;-122.822;2024-03-07T02:32:52;6.40;99.90
6375;DHT22;35400;45.472;-122.822;2024-03-07T02:35:21;6.40;99.90
6375;DHT22;35400;45.472;-122.822;2024-03-07T02:37:48;6.40;99.90
6375;DHT22;35400;45.472;-122.822;2024-03-07T02:40:15;6.30;99.90
6375;DHT22;35400;45.472;-122.822;2024-03-07T02:42:42;6.30;99.90
6375;DHT22;35400;45.472;-122.822;2024-03-07T02:45:10;6.30;99.90
6375;DHT22;35400;45.472;-122.822;2024-03-07T02:47:39;6.20;99.90
6375;DHT22;35400;45.472;-122.822;2024-03-07T02:50:09;6.20;99.90
6375;DHT22;35400;45.472;-122.822;2024-03-07T02:52:36;6.20;99.90
6375;DHT22;35400;45.472;-122.822;2024-03-07T02:55:03;6.20;99.90
6375;DHT22;35400;45.472;-122.822;2024-03-07T02:57:31;6.10;99.90
6375;DHT22;35400;45.472;-122.822;2024-03-07T02:59:58;6.10;99.90
6375;DHT22;35400;45.472;-122.822;2024-03-07T03:02:25;6.10;99.90
6375;DHT22;35400;45.472;-122.822;2024-03-07T03:04:52;6.10;99.90
6375;DHT22;35400;45.472;-122.822;2024-03-07T03:07:21;6.10;99.90
6375;DHT22;35400;45.472;-122.822;2024-03-07T03:09:47;6.10;99.90
6375;DHT22;35400;45.472;-122.822;2024-03-07T03:12:15;6.10;99.90
6375;DHT22;35400;45.472;-122.822;2024-03-07T03:14:42;6.10;99.90
6375;DHT22;35400;45.472;-122.822;2024-03-07T03:17:09;6.00;99.90
6375;DHT22;35400;45.472;-122.822;2024-03-07T03:19:37;6.00;99.90
6375;DHT22;35400;45.472;-122.822;2024-03-07T03:22:04;6.00;99.90
6375;DHT22;35400;45.472;-122.822;2024-03-07T03:24:31;6.00;99.90
6375;DHT22;35400;45.472;-122.822;2024-03-07T03:26:58;6.00;99.90
6375;DHT22;35400;45.472;-122.822;2024-03-07T03:29:25;5.90;99.90
6375;DHT22;35400;45.472;-122.822;2024-03-07T03:31:55;6.00;99.90
6375;DHT22;35400;45.472;-122.822;2024-03-07T03:34:23;5.90;99.90
6375;DHT22;35400;45.472;-122.822;2024-03-07T03:36:50;5.90;99.90
6375;DHT22;35400;45.472;-122.822;2024-03-07T03:39:17;5.90;99.90
6375;DHT22;35400;45.472;-122.822;2024-03-07T03:41:47;5.90;99.90
6375;DHT22;35400;45.472;-122.822;2024-03-07T03:44:13;5.90;99.90
6375;DHT22;35400;45.472;-122.822;2024-03-07T03:46:41;5.90;99.90
6375;DHT22;35400;45.472;-122.822;2024-03-07T03:49:07;5.80;99.90
6375;DHT22;35400;45.472;-122.822;2024-03-07T03:51:34;5.80;99.90
6375;DHT22;35400;45.472;-122.822;2024-03-07T03:54:02;5.90;99.90
6375;DHT22;35400;45.472;-122.822;2024-03-07T03:56:29;5.80;99.90
6375;DHT22;35400;45.472;-122.822;2024-03-07T03:58:58;5.80;99.90
6375;DHT22;35400;45.472;-122.822;2024-03-07T04:01:25;5.80;99.90
6375;DHT22;35400;45.472;-122.822;2024-03-07T04:03:52;5.80;99.90
6375;DHT22;35400;45.472;-122.822;2024-03-07T04:06:19;5.80;99.90
6375;DHT22;35400;45.472;-122.822;2024-03-07T04:08:46;5.80;99.90
6375;DHT22;35400;45.472;-122.822;2024-03-07T04:11:13;5.80;99.90
6375;DHT22;35400;45.472;-122.822;2024-03-07T04:13:40;5.80;99.90
6375;DHT22;35400;45.472;-122.822;2024-03-07T04:16:06;5.80;99.90
6375;DHT22;35400;45.472;-122.822;2024-03-07T04:18:35;5.80;99.90
6375;DHT22;35400;45.472;-122.822;2024-03-07T04:21:01;5.80;99.90
6375;DHT22;35400;45.472;-122.822;2024-03-07T04:23:28;5.80;99.90
6375;DHT22;35400;45.472;-122.822;2024-03-07T04:25:55;5.80;99.90
6375;DHT22;35400;45.472;-122.822;2024-03-07T04:28:22;5.70;99.90
6375;DHT22;35400;45.472;-122.822;2024-03-07T04:30:49;5.80;99.90
6375;DHT22;35400;45.472;-122.822;2024-03-07T04:33:16;5.80;99.90
6375;DHT22;35400;45.472;-122.822;2024-03-07T04:35:43;5.70;99.90
6375;DHT22;35400;45.472;-122.822;2024-03-07T04:38:10;5.70;99.90
6375;DHT22;35400;45.472;-122.822;2024-03-07T04:40:44;5.70;99.90
6375;DHT22;35400;45.472;-122.822;2024-03-07T04:43:11;5.70;99.90
6375;DHT22;35400;45.472;-122.822;2024-03-07T04:45:38;5.70;99.90
6375;DHT22;35400;45.472;-122.822;2024-03-07T04:48:05;5.70;99.90
6375;DHT22;35400;45.472;-122.822;2024-03-07T04:50:32;5.70;99.90
6375;DHT22;35400;45.472;-122.822;2024-03-07T04:52:59;5.70;99.90
6375;DHT22;35400;45.472;-122.822;2024-03-07T04:55:26;5.70;99.90
6375;DHT22;35400;45.472;-122.822;2024-03-07T04:57:53;5.60;99.90
6375;DHT22;35400;45.472;-122.822;2024-03-07T05:00:20;5.60;99.90
6375;DHT22;35400;45.472;-122.822;2024-03-07T05:02:48;5.60;99.90
6375;DHT22;35400;45.472;-122.822;2024-03-07T05:05:18;5.60;99.90
6375;DHT22;35400;45.472;-122.822;2024-03-07T05:07:53;5.60;99.90
6375;DHT22;35400;45.472;-122.822;2024-03-07T05:10:20;5.50;99.90
6375;DHT22;35400;45.472;-122.822;2024-03-07T05:12:47;5.50;99.90
6375;DHT22;35400;45.472;-122.822;2024-03-07T05:15:14;5.50;99.90
6375;DHT22;35400;45.472;-122.822;2024-03-07T05:17:41;5.50;99.90
6375;DHT22;35400;45.472;-122.822;2024-03-07T05:20:09;5.50;99.90
6375;DHT22;35400;45.472;-122.822;2024-03-07T05:22:37;5.40;99.90
6375;DHT22;35400;45.472;-122.822;2024-03-07T05:25:13;5.40;99.90
6375;DHT22;35400;45.472;-122.822;2024-03-07T05:27:42;5.40;99.90
6375;DHT22;35400;45.472;-122.822;2024-03-07T05:30:10;5.40;99.90
6375;DHT22;35400;45.472;-122.822;2024-03-07T05:32:38;5.30;99.90
6375;DHT22;35400;45.472;-122.822;2024-03-07T05:35:05;5.30;99.90
6375;DHT22;35400;45.472;-122.822;2024-03-07T05:37:32;5.30;99.90
6375;DHT22;35400;45.472;-122.822;2024-03-07T05:39:59;5.30;99.90
6375;DHT22;35400;45.472;-122.822;2024-03-07T05:42:26;5.20;99.90
6375;DHT22;35400;45.472;-122.822;2024-03-07T05:44:53;5.20;99.90
6375;DHT22;35400;45.472;-122.822;2024-03-07T05:47:20;5.20;99.90
6375;DHT22;35400;45.472;-122.822;2024-03-07T05:49:48;5.20;99.90
6375;DHT22;35400;45.472;-122.822;2024-03-07T05:52:15;5.10;99.90
6375;DHT22;35400;45.472;-122.822;2024-03-07T05:54:42;5.10;99.90
6375;DHT22;35400;45.472;-122.822;2024-03-07T05:57:10;5.10;99.90
6375;DHT22;35400;45.472;-122.822;2024-03-07T05:59:37;5.10;99.90
6375;DHT22;35400;45.472;-122.822;2024-03-07T06:02:05;5.00;99.90
6375;DHT22;35400;45.472;-122.822;2024-03-07T06:04:32;5.10;99.90
6375;DHT22;35400;45.472;-122.822;2024-03-07T06:07:00;5.00;99.90
6375;DHT22;35400;45.472;-122.822;2024-03-07T06:09:27;5.00;99.90
6375;DHT22;35400;45.472;-122.822;2024-03-07T06:11:54;5.00;99.90
6375;DHT22;35400;45.472;-122.822;2024-03-07T06:14:21;4.90;99.90
6375;DHT22;35400;45.472;-122.822;2024-03-07T06:16:50;4.90;99.90
6375;DHT22;35400;45.472;-122.822;2024-03-07T06:19:18;4.90;99.90
6375;DHT22;35400;45.472;-122.822;2024-03-07T06:21:45;4.90;99.90
6375;DHT22;35400;45.472;-122.822;2024-03-07T06:24:12;4.80;99.90
6375;DHT22;35400;45.472;-122.822;2024-03-07T06:26:41;4.80;99.90
6375;DHT22;35400;45.472;-122.822;2024-03-07T06:29:15;4.80;99.90
6375;DHT22;35400;45.472;-122.822;2024-03-07T06:31:43;4.80;99.90
6375;DHT22;35400;45.472;-122.822;2024-03-07T06:34:12;4.80;99.90
6375;DHT22;35400;45.472;-122.822;2024-03-07T06:36:39;4.70;99.90
6375;DHT22;35400;45.472;-122.822;2024-03-07T06:39:09;4.70;99.90
6375;DHT22;35400;45.472;-122.822;2024-03-07T06:41:40;4.70;99.90
6375;DHT22;35400;45.472;-122.822;2024-03-07T06:44:08;4.70;99.90
6375;DHT22;35400;45.472;-122.822;2024-03-07T06:46:36;4.70;99.90
6375;DHT22;35400;45.472;-122.822;2024-03-07T06:49:03;4.70;99.90
6375;DHT22;35400;45.472;-122.822;2024-03-07T06:51:32;4.60;99.90
6375;DHT22;35400;45.472;-122.822;2024-03-07T06:53:59;4.60;99.90
6375;DHT22;35400;45.472;-122.822;2024-03-07T06:56:26;4.60;99.90
6375;DHT22;35400;45.472;-122.822;2024-03-07T06:58:53;4.60;99.90
6375;DHT22;35400;45.472;-122.822;2024-03-07T07:01:19;4.50;99.90
6375;DHT22;35400;45.472;-122.822;2024-03-07T07:03:47;4.50;99.90
6375;DHT22;35400;45.472;-122.822;2024-03-07T07:06:15;4.50;99.90
6375;DHT22;35400;45.472;-122.822;2024-03-07T07:08:43;4.50;99.90
6375;DHT22;35400;45.472;-122.822;2024-03-07T07:11:11;4.50;99.90
6375;DHT22;35400;45.472;-122.822;2024-03-07T07:13:38;4.40;99.90
6375;DHT22;35400;45.472;-122.822;2024-03-07T07:16:05;4.40;99.90
6375;DHT22;35400;45.472;-122.822;2024-03-07T07:18:32;4.40;99.90
6375;DHT22;35400;45.472;-122.822;2024-03-07T07:20:59;4.30;99.90
6375;DHT22;35400;45.472;-122.822;2024-03-07T07:23:29;4.30;99.90
6375;DHT22;35400;45.472;-122.822;2024-03-07T07:25:55;4.30;99.90
6375;DHT22;35400;45.472;-122.822;2024-03-07T07:28:22;4.30;99.90
6375;DHT22;35400;45.472;-122.822;2024-03-07T07:30:49;4.20;99.90
6375;DHT22;35400;45.472;-122.822;2024-03-07T07:33:16;4.20;99.90
6375;DHT22;35400;45.472;-122.822;2024-03-07T07:35:44;4.20;99.90
6375;DHT22;35400;45.472;-122.822;2024-03-07T07:38:11;4.10;99.90
6375;DHT22;35400;45.472;-122.822;2024-03-07T07:40:41;4.10;99.90
6375;DHT22;35400;45.472;-122.822;2024-03-07T07:43:08;4.00;99.90
6375;DHT22;35400;45.472;-122.822;2024-03-07T07:45:35;4.00;99.90
6375;DHT22;35400;45.472;-122.822;2024-03-07T07:48:02;4.00;99.90
6375;DHT22;35400;45.472;-122.822;2024-03-07T07:50:29;3.90;99.90
6375;DHT22;35400;45.472;-122.822;2024-03-07T07:52:57;3.80;99.90
6375;DHT22;35400;45.472;-122.822;2024-03-07T07:55:27;3.80;99.90
6375;DHT22;35400;45.472;-122.822;2024-03-07T07:57:57;3.70;99.90
6375;DHT22;35400;45.472;-122.822;2024-03-07T08:00:25;3.70;99.90
6375;DHT22;35400;45.472;-122.822;2024-03-07T08:02:59;3.60;99.90
6375;DHT22;35400;45.472;-122.822;2024-03-07T08:05:28;3.60;99.90
6375;DHT22;35400;45.472;-122.822;2024-03-07T08:07:57;3.50;99.90
6375;DHT22;35400;45.472;-122.822;2024-03-07T08:10:28;3.50;99.90
6375;DHT22;35400;45.472;-122.822;2024-03-07T08:12:56;3.40;99.90
6375;DHT22;35400;45.472;-122.822;2024-03-07T08:15:24;3.30;99.90
6375;DHT22;35400;45.472;-122.822;2024-03-07T08:17:52;3.30;99.90
6375;DHT22;35400;45.472;-122.822;2024-03-07T08:20:22;3.20;99.90
6375;DHT22;35400;45.472;-122.822;2024-03-07T08:22:50;3.20;99.90
6375;DHT22;35400;45.472;-122.822;2024-03-07T08:25:23;3.10;99.90
6375;DHT22;35400;45.472;-122.822;2024-03-07T08:27:52;3.10;99.90
6375;DHT22;35400;45.472;-122.822;2024-03-07T08:30:19;3.00;99.90
6375;DHT22;35400;45.472;-122.822;2024-03-07T08:32:54;2.90;99.90
6375;DHT22;35400;45.472;-122.822;2024-03-07T08:35:22;2.90;99.90
6375;DHT22;35400;45.472;-122.822;2024-03-07T08:37:50;2.80;99.90
6375;DHT22;35400;45.472;-122.822;2024-03-07T08:40:23;2.80;99.90
6375;DHT22;35400;45.472;-122.822;2024-03-07T08:42:53;2.70;99.90
6375;DHT22;35400;45.472;-122.822;2024-03-07T08:45:24;2.60;99.90
6375;DHT22;35400;45.472;-122.822;2024-03-07T08:47:52;2.60;99.90
6375;DHT22;35400;45.472;-122.822;2024-03-07T08:50:23;2.50;99.90
6375;DHT22;35400;45.472;-122.822;2024-03-07T08:52:50;2.50;99.90
6375;DHT22;35400;45.472;-122.822;2024-03-07T08:55:20;2.40;99.90
6375;DHT22;35400;45.472;-122.822;2024-03-07T08:57:47;2.40;99.90
6375;DHT22;35400;45.472;-122.822;2024-03-07T09:00:16;2.30;99.90
6375;DHT22;35400;45.472;-122.822;2024-03-07T09:02:59;2.30;99.90
6375;DHT22;35400;45.472;-122.822;2024-03-07T09:05:30;2.20;99.90
6375;DHT22;35400;45.472;-122.822;2024-03-07T09:08:00;2.20;99.90
6375;DHT22;35400;45.472;-122.822;2024-03-07T09:10:27;2.10;99.90
6375;DHT22;35400;45.472;-122.822;2024-03-07T09:12:56;2.10;99.90
6375;DHT22;35400;45.472;-122.822;2024-03-07T09:15:23;2.00;99.90
6375;DHT22;35400;45.472;-122.822;2024-03-07T09:17:50;2.00;99.90
6375;DHT22;35400;45.472;-122.822;2024-03-07T09:20:18;1.90;99.90
6375;DHT22;35400;45.472;-122.822;2024-03-07T09:22:47;1.90;99.90
6375;DHT22;35400;45.472;-122.822;2024-03-07T09:25:15;1.80;99.90
6375;DHT22;35400;45.472;-122.822;2024-03-07T09:27:42;1.80;99.90
6375;DHT22;35400;45.472;-122.822;2024-03-07T09:30:10;1.70;99.90
6375;DHT22;35400;45.472;-122.822;2024-03-07T09:32:41;1.70;99.90
6375;DHT22;35400;45.472;-122.822;2024-03-07T09:35:09;1.60;99.90
6375;DHT22;35400;45.472;-122.822;2024-03-07T09:37:41;1.60;99.90
6375;DHT22;35400;45.472;-122.822;2024-03-07T09:40:09;1.60;99.90
6375;DHT22;35400;45.472;-122.822;2024-03-07T09:42:47;1.50;99.90
6375;DHT22;35400;45.472;-122.822;2024-03-07T09:45:19;1.50;99.90
6375;DHT22;35400;45.472;-122.822;2024-03-07T09:47:48;1.40;99.90
6375;DHT22;35400;45.472;-122.822;2024-03-07T09:50:17;1.40;99.90
6375;DHT22;35400;45.472;-122.822;2024-03-07T09:52:52;1.30;99.90
6375;DHT22;35400;45.472;-122.822;2024-03-07T09:55:19;1.30;99.90
6375;DHT22;35400;45.472;-122.822;2024-03-07T09:57:48;1.20;99.90
6375;DHT22;35400;45.472;-122.822;2024-03-07T10:00:17;1.20;99.90
6375;DHT22;35400;45.472;-122.822;2024-03-07T10:03:01;1.20;99.90
6375;DHT22;35400;45.472;-122.822;2024-03-07T10:05:30;1.10;99.90
6375;DHT22;35400;45.472;-122.822;2024-03-07T10:07:58;1.10;99.90
6375;DHT22;35400;45.472;-122.822;2024-03-07T10:10:25;1.10;99.90
6375;DHT22;35400;45.472;-122.822;2024-03-07T10:12:52;1.00;99.90
6375;DHT22;35400;45.472;-122.822;2024-03-07T10:15:32;1.00;99.90
6375;DHT22;35400;45.472;-122.822;2024-03-07T10:18:00;0.90;99.90
6375;DHT22;35400;45.472;-122.822;2024-03-07T10:20:27;0.90;99.90
6375;DHT22;35400;45.472;-122.822;2024-03-07T10:22:54;0.90;99.90
6375;DHT22;35400;45.472;-122.822;2024-03-07T10:25:22;0.80;99.90
6375;DHT22;35400;45.472;-122.822;2024-03-07T10:27:52;0.80;99.90
6375;DHT22;35400;45.472;-122.822;2024-03-07T10:30:19;0.80;99.90
6375;DHT22;35400;45.472;-122.822;2024-03-07T10:32:57;0.70;99.90
6375;DHT22;35400;45.472;-122.822;2024-03-07T10:35:25;0.70;99.90
6375;DHT22;35400;45.472;-122.822;2024-03-07T10:37:56;0.70;99.90
6375;DHT22;35400;45.472;-122.822;2024-03-07T10:40:26;0.60;99.90
6375;DHT22;35400;45.472;-122.822;2024-03-07T10:42:57;0.60;99.90
6375;DHT22;35400;45.472;-122.822;2024-03-07T10:45:28;0.50;99.90
6375;DHT22;35400;45.472;-122.822;2024-03-07T10:47:58;0.50;99.90
6375;DHT22;35400;45.472;-122.822;2024-03-07T10:58:40;0.40;99.90
6375;DHT22;35400;45.472;-122.822;2024-03-07T11:01:10;0.30;99.90
6375;DHT22;35400;45.472;-122.822;2024-03-07T11:03:40;0.30;99.90
6375;DHT22;35400;45.472;-122.822;2024-03-07T11:06:09;0.20;99.90
6375;DHT22;35400;45.472;-122.822;2024-03-07T11:08:38;0.20;99.90
6375;DHT22;35400;45.472;-122.822;2024-03-07T11:11:05;0.20;99.90
6375;DHT22;35400;45.472;-122.822;2024-03-07T11:13:34;0.10;99.90
6375;DHT22;35400;45.472;-122.822;2024-03-07T11:16:01;0.10;99.90
6375;DHT22;35400;45.472;-122.822;2024-03-07T11:18:29;0.10;99.90
6375;DHT22;35400;45.472;-122.822;2024-03-07T11:20:56;0.10;99.90
6375;DHT22;35400;45.472;-122.822;2024-03-07T11:23:32;0.00;99.90
6375;DHT22;35400;45.472;-122.822;2024-03-07T11:26:05;0.00;99.90
6375;DHT22;35400;45.472;-122.822;2024-03-07T11:31:13;-0.10;99.90
6375;DHT22;35400;45.472;-122.822;2024-03-07T11:33:41;-0.10;99.90
6375;DHT22;35400;45.472;-122.822;2024-03-07T11:36:12;-0.20;99.90
6375;DHT22;35400;45.472;-122.822;2024-03-07T11:38:59;-0.20;99.90
6375;DHT22;35400;45.472;-122.822;2024-03-07T11:41:26;-0.30;99.90
6375;DHT22;35400;45.472;-122.822;2024-03-07T11:43:53;-0.30;99.90
6375;DHT22;35400;45.472;-122.822;2024-03-07T11:46:21;-0.30;99.90
6375;DHT22;35400;45.472;-122.822;2024-03-07T11:48:50;-0.30;99.90
6375;DHT22;35400;45.472;-122.822;2024-03-07T11:51:21;-0.40;99.90
6375;DHT22;35400;45.472;-122.822;2024-03-07T11:53:51;-0.40;99.90
6375;DHT22;35400;45.472;-122.822;2024-03-07T11:56:20;-0.40;99.90
6375;DHT22;35400;45.472;-122.822;2024-03-07T11:58:47;-0.40;99.90
6375;DHT22;35400;45.472;-122.822;2024-03-07T12:01:22;-0.50;99.90
6375;DHT22;35400;45.472;-122.822;2024-03-07T12:03:51;-0.50;99.90
6375;DHT22;35400;45.472;-122.822;2024-03-07T12:06:19;-0.50;99.90
6375;DHT22;35400;45.472;-122.822;2024-03-07T12:08:47;-0.60;99.90
6375;DHT22;35400;45.472;-122.822;2024-03-07T12:11:15;-0.50;99.90
6375;DHT22;35400;45.472;-122.822;2024-03-07T12:13:43;-0.60;99.90
6375;DHT22;35400;45.472;-122.822;2024-03-07T12:16:09;-0.60;99.90
6375;DHT22;35400;45.472;-122.822;2024-03-07T12:18:37;-0.60;99.90
6375;DHT22;35400;45.472;-122.822;2024-03-07T12:21:04;-0.60;99.90
6375;DHT22;35400;45.472;-122.822;2024-03-07T12:23:37;-0.70;99.90
6375;DHT22;35400;45.472;-122.822;2024-03-07T12:26:04;-0.70;99.90
6375;DHT22;35400;45.472;-122.822;2024-03-07T12:28:31;-0.70;99.90
6375;DHT22;35400;45.472;-122.822;2024-03-07T12:31:01;-0.70;99.90
6375;DHT22;35400;45.472;-122.822;2024-03-07T12:33:29;-0.80;99.90
6375;DHT22;35400;45.472;-122.822;2024-03-07T12:35:57;-0.80;99.90
6375;DHT22;35400;45.472;-122.822;2024-03-07T12:38:32;-0.80;99.90
6375;DHT22;35400;45.472;-122.822;2024-03-07T12:41:07;-0.80;99.90
6375;DHT22;35400;45.472;-122.822;2024-03-07T12:43:43;-0.90;99.90
6375;DHT22;35400;45.472;-122.822;2024-03-07T12:46:13;-0.90;99.90
6375;DHT22;35400;45.472;-122.822;2024-03-07T12:48:41;-0.90;99.90
6375;DHT22;35400;45.472;-122.822;2024-03-07T12:51:11;-0.90;99.90
6375;DHT22;35400;45.472;-122.822;2024-03-07T12:53:43;-1.00;99.90
6375;DHT22;35400;45.472;-122.822;2024-03-07T12:56:10;-1.00;99.90
6375;DHT22;35400;45.472;-122.822;2024-03-07T12:58:37;-1.00;99.90
6375;DHT22;35400;45.472;-122.822;2024-03-07T13:01:04;-1.00;99.90
6375;DHT22;35400;45.472;-122.822;2024-03-07T13:03:31;-1.10;99.90
6375;DHT22;35400;45.472;-122.822;2024-03-07T13:05:58;-1.10;99.90
6375;DHT22;35400;45.472;-122.822;2024-03-07T13:08:28;-1.10;99.90
6375;DHT22;35400;45.472;-122.822;2024-03-07T13:10:58;-1.10;99.90
6375;DHT22;35400;45.472;-122.822;2024-03-07T13:13:28;-1.20;99.90
6375;DHT22;35400;45.472;-122.822;2024-03-07T13:15:55;-1.20;99.90
6375;DHT22;35400;45.472;-122.822;2024-03-07T13:18:22;-1.20;99.90
6375;DHT22;35400;45.472;-122.822;2024-03-07T13:20:49;-1.20;99.90
6375;DHT22;35400;45.472;-122.822;2024-03-07T13:23:16;-1.20;99.90
6375;DHT22;35400;45.472;-122.822;2024-03-07T13:25:43;-1.30;99.90
6375;DHT22;35400;45.472;-122.822;2024-03-07T13:28:12;-1.30;99.90
6375;DHT22;35400;45.472;-122.822;2024-03-07T13:30:43;-1.30;99.90
6375;DHT22;35400;45.472;-122.822;2024-03-07T13:33:11;-1.30;99.90
6375;DHT22;35400;45.472;-122.822;2024-03-07T13:35:40;-1.40;99.90
6375;DHT22;35400;45.472;-122.822;2024-03-07T13:38:07;-1.40;99.90
6375;DHT22;35400;45.472;-122.822;2024-03-07T13:40:36;-1.40;99.90
6375;DHT22;35400;45.472;-122.822;2024-03-07T13:43:06;-1.40;99.90
6375;DHT22;35400;45.472;-122.822;2024-03-07T13:45:34;-1.40;99.90
6375;DHT22;35400;45.472;-122.822;2024-03-07T13:48:10;-1.40;99.90
6375;DHT22;35400;45.472;-122.822;2024-03-07T13:50:40;-1.40;99.90
6375;DHT22;35400;45.472;-122.822;2024-03-07T13:53:08;-1.50;99.90
6375;DHT22;35400;45.472;-122.822;2024-03-07T14:00:48;-1.60;99.90
6375;DHT22;35400;45.472;-122.822;2024-03-07T14:06:34;-1.60;99.90
6375;DHT22;35400;45.472;-122.822;2024-03-07T14:15:18;-1.60;99.90
6375;DHT22;35400;45.472;-122.822;2024-03-07T14:18:36;-1.60;99.90
6375;DHT22;35400;45.472;-122.822;2024-03-07T14:32:59;-1.70;99.90
6375;DHT22;35400;45.472;-122.822;2024-03-07T14:38:40;-1.80;99.90
6375;DHT22;35400;45.472;-122.822;2024-03-07T14:41:10;-1.80;99.90
6375;DHT22;35400;45.472;-122.822;2024-03-07T14:43:39;-1.80;99.90
6375;DHT22;35400;45.472;-122.822;2024-03-07T14:46:11;-1.80;99.90
6375;DHT22;35400;45.472;-122.822;2024-03-07T14:48:42;-1.80;99.90
6375;DHT22;35400;45.472;-122.822;2024-03-07T14:51:12;-1.80;99.90
6375;DHT22;35400;45.472;-122.822;2024-03-07T14:53:40;-1.80;99.90
6375;DHT22;35400;45.472;-122.822;2024-03-07T14:56:11;-1.80;99.90
6375;DHT22;35400;45.472;-122.822;2024-03-07T14:58:38;-1.80;99.90
6375;DHT22;35400;45.472;-122.822;2024-03-07T15:01:06;-1.80;99.90
6375;DHT22;35400;45.472;-122.822;2024-03-07T15:03:33;-1.80;99.90
6375;DHT22;35400;45.472;-122.822;2024-03-07T15:06:00;-1.80;99.90
6375;DHT22;35400;45.472;-122.822;2024-03-07T15:08:28;-1.80;99.90
6375;DHT22;35400;45.472;-122.822;2024-03-07T15:11:22;-1.70;99.90
6375;DHT22;35400;45.472;-122.822;2024-03-07T15:13:47;-1.70;99.90
6375;DHT22;35400;45.472;-122.822;2024-03-07T15:16:14;-1.70;99.90
6375;DHT22;35400;45.472;-122.822;2024-03-07T15:18:41;-1.60;99.90
6375;DHT22;35400;45.472;-122.822;2024-03-07T15:21:11;-1.60;99.90
6375;DHT22;35400;45.472;-122.822;2024-03-07T15:23:42;-1.50;99.90
6375;DHT22;35400;45.472;-122.822;2024-03-07T15:26:09;-1.50;99.90
6375;DHT22;35400;45.472;-122.822;2024-03-07T15:28:35;-1.40;99.90
6375;DHT22;35400;45.472;-122.822;2024-03-07T15:31:02;-1.40;99.90
6375;DHT22;35400;45.472;-122.822;2024-03-07T15:33:33;-1.30;99.90
6375;DHT22;35400;45.472;-122.822;2024-03-07T15:36:00;-1.20;99.90
6375;DHT22;35400;45.472;-122.822;2024-03-07T15:38:29;-1.10;99.90
6375;DHT22;35400;45.472;-122.822;2024-03-07T15:41:02;-1.10;99.90
6375;DHT22;35400;45.472;-122.822;2024-03-07T15:43:29;-1.00;99.90
6375;DHT22;35400;45.472;-122.822;2024-03-07T15:45:56;-0.90;99.90
6375;DHT22;35400;45.472;-122.822;2024-03-07T15:48:26;-0.80;99.90
6375;DHT22;35400;45.472;-122.822;2024-03-07T15:50:53;-0.70;99.90
6375;DHT22;35400;45.472;-122.822;2024-03-07T15:53:20;-0.60;99.90
6375;DHT22;35400;45.472;-122.822;2024-03-07T15:55:48;-0.50;99.90
6375;DHT22;35400;45.472;-122.822;2024-03-07T15:58:15;-0.30;99.90
6375;DHT22;35400;45.472;-122.822;2024-03-07T16:00:45;-0.20;99.90